Centralia, Centralia Municipal Airport (KENL)

NameCentralia Municipal Airport
CityCentralia
CountryUnited States
ICAOKENL
IATAENL
Altitude163 m
CoordinatesGoogle Map
Live Air TrafficLiveATC.net
METARKENL 190755Z AUTO 00000KT 7SM CLR 04/04 A3032 RMK AO2 T00370035
2018-10-19 07:55:00 Wind: North (0°) 0 m/s - Visibility: 11265.38 m - Temperature: 4 °C - Dew point: 4 °C - Humidity: 100% - Pressure: 1026.75 hPa
Statistics

The table below shows the detailed information of all flights to/from Centralia, Centralia Municipal Airport (KENL).